ADDS METAR Data INFO
IDs: Format: Raw Decoded Include TAF

Data at: 0407 UTC 11 Dec 2017

PALG 101256Z AUTO VRB04KT 10SM OVC009 M07/M07 A2949 RMK AO2 CIG 007V011 SLP990 T10671072 FZRANO
PALG 101056Z AUTO 00000KT 10SM OVC011 M07/M08 A2951 RMK AO2 SLP997 T10671078 FZRANO
PALG 101015Z AUTO 00000KT 10SM OVC011 M07/M08 A2952 RMK AO2 FZRANO
PALG 100956Z AUTO 00000KT 10SM OVC009 M07/M08 A2952 RMK AO2 SLP001 T10721078 FZRANO
PALG 100556Z AUTO 00000KT 10SM OVC011 M13/M14 A2955 RMK AO2 SLP012 T11331144 11072 21139 56007 FZRANO
PALG 100519Z AUTO 00000KT 10SM BKN011 M14/M16 A2956 RMK AO2 FZRANO
PALG 100456Z 00000KT 10SM SCT009 M13/M14 A2956 RMK AO2 SLP296 PWINO FZRANO TSNO RVRNO
PALG 100454Z AUTO 00000KT 10SM SCT009 M13/M14 A2956 RMK AO2 FZRANO
PALG 100356Z 00000KT 10SM CLR M12/M14 A2957 RMK AO2 SLP296 PWINO FZRANO TSNO RVRNO
PALG 100256Z AUTO VRB03KT 10SM CLR M11/M12 A2959 RMK AO2 SLP024 T11111122 56017 FZRANO
PALG 100156Z 00000KT 10SM CLR M11/M12 A2960 RMK AO2 SLP296 PWINO FZRANO TSNO RVRNO
PALG 100056Z AUTO 22004KT 10SM CLR M08/M09 A2962 RMK AO2 SLP034 T10781089 FZRANO
PALG 092356Z AUTO 21003KT 10SM CLR M07/M08 A2964 RMK AO2 SLP041 T10721083 11067 21106 58015 FZRANO
PALG 092156Z AUTO 23003KT 10SM CLR M08/M09 A2967 RMK AO2 SLP054 T10831094 FZRANO
PALG 091956Z 21003KT 10SM CLR M10/M11 A2967 RMK AO2 SLP297 PWINO FZRANO TSNO RVRNO
PALG 091856Z 00000KT 10SM CLR M09/M11 A2968 RMK AO2 SLP297 PWINO FZRANO TSNO RVRNO
PALG 091756Z AUTO VRB03KT 10SM CLR M10/M11 A2966 RMK AO2 SLP049 T11001111 11067 21100 58007 FZRANO
PALG 091656Z AUTO VRB03KT 10SM CLR M09/M10 A2967 RMK AO2 SLP052 T10891100 FZRANO